createdAt,value
2022-08-30T00:03:58.460Z,94166.75
2022-08-30T00:09:00.690Z,94164.75
2022-08-30T00:14:02.582Z,94158.69
2022-08-30T00:19:04.909Z,94161.66
2022-08-30T00:24:06.920Z,94160.31
2022-08-30T00:29:08.943Z,94161.31
2022-08-30T00:34:10.781Z,94168.00
2022-08-30T00:39:12.842Z,94173.63
2022-08-30T00:44:14.637Z,94169.19
2022-08-30T00:49:16.772Z,94175.47
2022-08-30T00:54:19.311Z,94170.06
2022-08-30T00:59:22.093Z,94174.78
2022-08-30T01:04:25.864Z,94180.22
2022-08-30T01:09:27.762Z,94191.47
2022-08-30T01:14:30.795Z,94172.63
2022-08-30T01:19:53.735Z,94188.78
2022-08-30T01:24:58.581Z,94174.97
2022-08-30T01:30:01.490Z,94188.22
2022-08-30T01:35:03.437Z,94186.38
2022-08-30T01:40:07.414Z,94182.66
2022-08-30T01:45:10.871Z,94190.44
2022-08-30T01:50:13.067Z,94171.50
2022-08-30T01:55:15.065Z,94192.78
2022-08-30T02:00:18.223Z,94187.34
2022-08-30T02:05:20.034Z,94165.66
2022-08-30T02:10:21.911Z,94193.09
2022-08-30T02:15:23.768Z,94186.91
2022-08-30T02:20:25.712Z,94200.94
2022-08-30T02:25:27.670Z,94196.75
2022-08-30T02:30:29.624Z,94202.22
2022-08-30T02:35:31.855Z,94177.91
2022-08-30T02:40:34.670Z,94208.94
2022-08-30T02:45:36.844Z,94203.50
2022-08-30T02:50:43.099Z,94188.78
2022-08-30T02:55:45.019Z,94201.59
2022-08-30T03:00:47.395Z,94198.09
2022-08-30T03:05:49.300Z,94202.00
2022-08-30T03:10:51.248Z,94198.13
2022-08-30T03:15:54.282Z,94207.50
2022-08-30T03:20:56.190Z,94199.34
2022-08-30T03:25:58.143Z,94200.91
2022-08-30T03:31:02.619Z,94216.47
2022-08-30T03:36:05.616Z,94205.22
2022-08-30T03:41:07.519Z,94192.09
2022-08-30T03:46:11.647Z,94201.44
2022-08-30T03:51:13.430Z,94176.63
2022-08-30T03:56:15.445Z,94202.56
2022-08-30T04:01:17.509Z,94200.63
2022-08-30T04:06:19.519Z,94206.44
2022-08-30T04:11:21.647Z,94204.56
2022-08-30T04:16:25.020Z,94208.44
2022-08-30T04:21:27.171Z,94209.22
2022-08-30T04:26:29.605Z,94192.19
2022-08-30T04:31:31.722Z,94212.31
2022-08-30T04:36:33.642Z,94224.31
2022-08-30T04:41:36.623Z,94220.81
2022-08-30T04:46:38.424Z,94237.13
2022-08-30T04:51:46.680Z,94241.75
2022-08-30T04:56:48.570Z,94252.63
2022-08-30T05:01:50.618Z,94235.97
2022-08-30T05:06:52.981Z,94251.88
2022-08-30T05:11:55.125Z,94256.91
2022-08-30T05:16:57.022Z,94261.16
2022-08-30T05:21:58.875Z,94271.25
2022-08-30T05:27:01.185Z,94275.09
2022-08-30T05:32:03.345Z,94279.38
2022-08-30T05:37:05.322Z,94272.03
2022-08-30T05:42:07.276Z,94273.56
2022-08-30T05:47:09.086Z,94295.28
2022-08-30T05:52:12.881Z,94293.72
2022-08-30T05:57:14.768Z,94307.28
2022-08-30T06:02:17.044Z,94304.94
2022-08-30T06:07:22.448Z,94316.53
2022-08-30T06:12:24.790Z,94321.97
2022-08-30T06:17:27.288Z,94331.66
2022-08-30T06:22:29.176Z,94338.66
2022-08-30T06:27:31.530Z,94347.56
2022-08-30T06:32:33.330Z,94315.00
2022-08-30T06:37:35.509Z,94315.00
2022-08-30T06:42:37.407Z,94350.31
2022-08-30T06:47:40.691Z,94356.91
2022-08-30T06:52:44.664Z,94333.66
2022-08-30T06:57:47.049Z,94339.91
2022-08-30T07:02:48.905Z,94355.38
2022-08-30T07:07:53.428Z,94360.81
2022-08-30T07:12:55.288Z,94365.84
2022-08-30T07:18:15.540Z,94349.91
2022-08-30T07:23:17.584Z,94348.75
2022-08-30T07:28:19.709Z,94379.00
2022-08-30T07:33:21.640Z,94355.69
2022-08-30T07:38:23.439Z,94392.56
2022-08-30T07:43:25.435Z,94384.41
2022-08-30T07:48:27.588Z,94396.00
2022-08-30T07:53:29.491Z,94406.09
2022-08-30T07:58:31.512Z,94407.59
2022-08-30T08:03:33.894Z,94410.63
2022-08-30T08:08:36.563Z,94404.38
2022-08-30T08:13:50.668Z,94399.22
2022-08-30T08:18:56.148Z,94373.50
2022-08-30T08:23:58.020Z,94399.69
2022-08-30T08:28:59.891Z,94403.78
2022-08-30T08:34:05.873Z,94413.56
2022-08-30T08:39:09.302Z,94406.69
2022-08-30T08:44:15.624Z,94397.78
2022-08-30T08:49:17.609Z,94371.53
2022-08-30T08:54:32.837Z,94398.31
2022-08-30T08:59:34.782Z,94402.16
2022-08-30T09:04:38.546Z,94378.56
2022-08-30T09:09:40.875Z,94369.88
2022-08-30T09:14:54.504Z,94393.00
2022-08-30T09:19:59.429Z,94393.00
2022-08-30T09:25:03.267Z,94395.50
2022-08-30T09:30:07.045Z,94367.00
2022-08-30T09:35:39.828Z,94394.50
2022-08-30T09:40:48.442Z,94390.97
2022-08-30T09:46:02.953Z,94362.56
2022-08-30T09:51:11.649Z,94361.78
2022-08-30T09:56:36.587Z,94378.81
2022-08-30T10:01:49.376Z,94389.03
2022-08-30T10:07:14.015Z,94354.00
2022-08-30T10:12:43.606Z,94378.44
2022-08-30T10:17:51.745Z,94375.69
2022-08-30T10:23:00.284Z,94379.81
2022-08-30T10:28:14.848Z,94370.75
2022-08-30T10:33:31.802Z,94369.97
2022-08-30T10:38:36.990Z,94363.03
2022-08-30T10:44:06.696Z,94360.72
2022-08-30T10:49:15.470Z,94331.31
2022-08-30T10:54:21.777Z,94349.72
2022-08-30T10:59:24.203Z,94337.91
2022-08-30T11:04:48.032Z,94335.84
2022-08-30T11:10:09.446Z,94331.78
2022-08-30T11:15:22.856Z,94335.16
2022-08-30T11:20:30.886Z,94324.41
2022-08-30T11:25:48.315Z,94317.44
2022-08-30T11:31:18.359Z,94309.66
2022-08-30T11:36:37.322Z,94300.03
2022-08-30T11:41:47.844Z,94300.50
2022-08-30T11:46:55.163Z,94279.09
2022-08-30T11:52:26.481Z,94281.78
2022-08-30T11:57:57.410Z,94272.53
2022-08-30T12:03:06.071Z,94271.22
2022-08-30T12:08:09.687Z,94258.16
2022-08-30T12:13:34.351Z,94258.72
2022-08-30T12:18:45.765Z,94247.03
2022-08-30T12:23:50.854Z,94253.06
2022-08-30T12:29:16.351Z,94217.25
2022-08-30T12:34:31.990Z,94230.38
2022-08-30T12:39:37.123Z,94225.78
2022-08-30T12:44:39.775Z,94220.25
2022-08-30T12:49:42.568Z,94190.38
2022-08-30T12:54:45.419Z,94213.09
2022-08-30T12:59:59.253Z,94189.03
2022-08-30T13:05:27.770Z,94204.97
2022-08-30T13:10:30.168Z,94174.16
2022-08-30T13:15:35.834Z,94196.38
2022-08-30T13:20:37.610Z,94191.59
2022-08-30T13:25:40.159Z,94174.00
2022-08-30T13:30:42.085Z,94183.22
2022-08-30T13:35:44.389Z,94165.06
2022-08-30T13:40:46.715Z,94176.72
2022-08-30T13:45:49.318Z,94125.81
2022-08-30T13:50:51.907Z,94153.41
2022-08-30T13:55:53.788Z,94144.69
2022-08-30T14:00:56.240Z,94123.78
2022-08-30T14:06:29.450Z,94130.25
2022-08-30T14:11:22.507Z,94121.44
2022-08-30T14:16:27.926Z,94113.16
2022-08-30T14:21:30.218Z,94108.78
2022-08-30T14:26:47.463Z,94111.00
2022-08-30T14:31:49.501Z,94101.22
2022-08-30T14:36:51.434Z,94084.94
2022-08-30T14:41:54.315Z,94083.19
2022-08-30T14:46:57.445Z,94078.47
2022-08-30T14:51:59.416Z,94065.91
2022-08-30T14:57:01.277Z,94034.50
2022-08-30T15:02:03.206Z,94046.84
2022-08-30T15:07:05.328Z,94068.78
2022-08-30T15:12:07.367Z,94040.13
2022-08-30T15:17:09.671Z,94045.44
2022-08-30T15:22:11.572Z,94047.97
2022-08-30T15:27:13.430Z,94027.41
2022-08-30T15:32:15.578Z,94034.78
2022-08-30T15:37:22.516Z,94027.09
2022-08-30T15:42:24.511Z,94009.28
2022-08-30T15:47:26.403Z,94022.81
2022-08-30T15:52:29.367Z,94019.97
2022-08-30T15:57:32.530Z,94019.88
2022-08-30T16:02:34.509Z,94006.97
2022-08-30T16:07:40.531Z,94009.78
2022-08-30T16:12:43.076Z,94005.75
2022-08-30T16:17:45.013Z,94017.81
2022-08-30T16:22:47.021Z,94007.03
2022-08-30T16:27:48.969Z,94005.22
2022-08-30T16:32:50.886Z,93988.53
2022-08-30T16:37:52.787Z,94002.41
2022-08-30T16:42:54.689Z,94013.34
2022-08-30T16:47:56.638Z,93988.72
2022-08-30T16:52:58.762Z,93976.63
2022-08-30T16:58:01.149Z,93985.69
2022-08-30T17:03:06.987Z,94008.41
2022-08-30T17:08:11.426Z,94005.72
2022-08-30T17:13:15.967Z,94010.75
2022-08-30T17:18:19.007Z,93991.56
2022-08-30T17:23:22.351Z,94013.44
2022-08-30T17:28:25.642Z,94008.38
2022-08-30T17:33:27.494Z,94002.94
2022-08-30T17:38:30.911Z,94018.25
2022-08-30T17:44:04.609Z,94011.41
2022-08-30T17:49:10.449Z,94019.72
2022-08-30T17:54:13.607Z,94034.59
2022-08-30T17:59:17.801Z,94027.53
2022-08-30T18:04:20.545Z,94032.28
2022-08-30T18:09:23.113Z,94036.59
2022-08-30T18:14:25.478Z,94038.88
2022-08-30T18:20:12.951Z,94041.34
2022-08-30T18:25:15.237Z,94042.41
2022-08-30T18:30:19.133Z,94032.09
2022-08-30T18:35:21.198Z,94040.50
2022-08-30T18:40:23.237Z,94034.03
2022-08-30T18:45:25.352Z,94066.94
2022-08-30T18:50:30.362Z,94073.16
2022-08-30T18:55:33.092Z,94073.31
2022-08-30T19:00:35.208Z,94086.91
2022-08-30T19:05:37.093Z,94085.78
2022-08-30T19:10:39.078Z,94081.16
2022-08-30T19:15:41.653Z,94071.22
2022-08-30T19:20:43.533Z,94100.41
2022-08-30T19:25:45.537Z,94106.06
2022-08-30T19:31:06.758Z,94110.69
2022-08-30T19:36:28.776Z,94133.63
2022-08-30T19:41:40.501Z,94134.38
2022-08-30T19:46:42.646Z,94126.59
2022-08-30T19:51:46.831Z,94149.59
2022-08-30T19:56:48.994Z,94129.22
2022-08-30T20:01:51.650Z,94160.94
2022-08-30T20:06:53.861Z,94155.22
2022-08-30T20:11:57.435Z,94158.75
2022-08-30T20:17:02.402Z,94145.69
2022-08-30T20:22:08.087Z,94172.06
2022-08-30T20:27:10.199Z,94173.16
2022-08-30T20:32:12.243Z,94159.34
2022-08-30T20:37:15.171Z,94181.97
2022-08-30T20:42:18.136Z,94179.19
2022-08-30T20:47:21.506Z,94182.91
2022-08-30T20:52:23.486Z,94188.50
2022-08-30T20:57:25.792Z,94187.28
2022-08-30T21:02:29.805Z,94180.34
2022-08-30T21:07:31.977Z,94197.28
2022-08-30T21:12:33.966Z,94192.19
2022-08-30T21:17:36.101Z,94194.38
2022-08-30T21:22:42.370Z,94172.81
2022-08-30T21:27:44.291Z,94192.03
2022-08-30T21:32:46.186Z,94197.56
2022-08-30T21:37:48.003Z,94192.03
2022-08-30T21:42:49.938Z,94166.06
2022-08-30T21:47:51.846Z,94193.84
2022-08-30T21:52:54.044Z,94179.59
2022-08-30T21:57:55.989Z,94195.31
2022-08-30T22:02:57.805Z,94204.91
2022-08-30T22:08:00.075Z,94206.22
2022-08-30T22:13:02.048Z,94204.19
2022-08-30T22:18:05.836Z,94208.63
2022-08-30T22:23:08.020Z,94208.22
2022-08-30T22:28:09.896Z,94217.88
2022-08-30T22:33:11.782Z,94197.41
2022-08-30T22:38:14.906Z,94213.84
2022-08-30T22:43:17.752Z,94226.09
2022-08-30T22:48:21.006Z,94219.28
2022-08-30T22:53:22.954Z,94228.72
2022-08-30T22:58:25.189Z,94224.50
2022-08-30T23:03:27.604Z,94233.78
2022-08-30T23:08:29.539Z,94235.44
2022-08-30T23:13:31.514Z,94226.78
2022-08-30T23:18:35.421Z,94234.34
2022-08-30T23:23:56.119Z,94243.81
2022-08-30T23:29:16.418Z,94228.53
2022-08-30T23:34:36.722Z,94236.78
2022-08-30T23:39:57.354Z,94251.38
2022-08-30T23:45:20.672Z,94231.13
2022-08-30T23:50:41.197Z,94221.44
2022-08-30T23:56:01.542Z,94202.28
